createdAt,value
2024-02-02T05:00:33.128Z,68732.00
2024-02-02T05:03:36.526Z,68734.63
2024-02-02T05:06:39.472Z,68727.38
2024-02-02T05:09:42.476Z,68733.41
2024-02-02T05:12:45.882Z,68748.22
2024-02-02T05:15:49.095Z,68742.13
2024-02-02T05:18:52.381Z,68736.63
2024-02-02T05:21:55.439Z,68734.06
2024-02-02T05:24:58.188Z,68736.38
2024-02-02T05:28:01.845Z,68749.31
2024-02-02T05:31:04.731Z,68771.78
2024-02-02T05:34:08.004Z,68760.59
2024-02-02T05:37:10.985Z,68758.53
2024-02-02T05:40:14.131Z,68751.34
2024-02-02T05:43:16.814Z,68752.78
2024-02-02T05:46:20.754Z,68745.25
2024-02-02T05:49:24.180Z,68738.34
2024-02-02T05:52:27.399Z,68791.13
2024-02-02T05:55:30.125Z,68735.78
2024-02-02T05:58:33.106Z,68732.25
2024-02-02T06:01:35.813Z,68736.69
2024-02-02T06:04:38.982Z,68734.63
2024-02-02T06:07:41.905Z,68730.03
2024-02-02T06:10:47.195Z,68779.25
2024-02-02T06:13:57.103Z,68723.34
2024-02-02T06:17:00.617Z,68776.09
2024-02-02T06:20:04.358Z,68723.66
2024-02-02T06:23:10.587Z,68715.84
2024-02-02T06:26:13.448Z,68721.34
2024-02-02T06:29:16.569Z,68725.38
2024-02-02T06:32:22.253Z,68733.16
2024-02-02T06:35:25.313Z,68740.06
2024-02-02T06:38:28.204Z,68751.28
2024-02-02T06:41:32.586Z,68762.56
2024-02-02T06:44:37.014Z,68757.94
2024-02-02T06:47:41.300Z,68768.06
2024-02-02T06:50:45.751Z,68771.78
2024-02-02T06:53:54.591Z,68835.56
2024-02-02T06:56:57.388Z,68850.59
2024-02-02T07:00:01.618Z,68809.06
2024-02-02T07:03:07.399Z,68822.59
2024-02-02T07:06:10.605Z,68840.47
2024-02-02T07:09:19.505Z,68863.31
2024-02-02T07:12:58.235Z,68944.75
2024-02-02T07:16:01.505Z,68904.59
2024-02-02T07:19:05.227Z,68930.56
2024-02-02T07:22:39.221Z,69004.31
2024-02-02T07:25:43.966Z,68985.22
2024-02-02T07:28:46.748Z,69069.34
2024-02-02T07:31:49.710Z,69024.19
2024-02-02T07:34:56.172Z,69073.72
2024-02-02T07:38:07.714Z,69071.41
2024-02-02T07:41:13.610Z,69035.53
2024-02-02T07:44:16.507Z,68982.00
2024-02-02T07:47:19.293Z,68976.22
2024-02-02T07:50:22.251Z,69030.59
2024-02-02T07:53:25.369Z,68957.72
2024-02-02T07:56:28.362Z,68972.50
2024-02-02T07:59:31.095Z,68982.91
2024-02-02T08:02:34.130Z,68989.25
2024-02-02T08:05:38.565Z,68990.66
2024-02-02T08:08:41.401Z,68978.53
2024-02-02T08:11:44.456Z,68971.03
2024-02-02T08:14:47.571Z,68955.75
2024-02-02T08:17:52.146Z,69006.63
2024-02-02T08:20:55.021Z,68945.59
2024-02-02T08:23:59.561Z,68978.53
2024-02-02T08:27:02.562Z,69005.44
2024-02-02T08:30:09.692Z,69022.81
2024-02-02T08:33:14.712Z,69083.81
2024-02-02T08:36:19.587Z,69084.13
2024-02-02T08:39:22.964Z,69031.13
2024-02-02T08:42:26.422Z,69015.25
2024-02-02T08:45:44.647Z,69030.31
2024-02-02T08:48:50.166Z,69030.88
2024-02-02T08:51:53.340Z,69029.72
2024-02-02T08:54:56.437Z,69018.16
2024-02-02T08:58:22.146Z,69037.25
2024-02-02T09:01:43.860Z,69026.84
2024-02-02T09:05:11.272Z,69088.78
2024-02-02T09:08:17.156Z,69041.28
2024-02-02T09:11:22.606Z,69121.50
2024-02-02T09:14:27.619Z,69117.69
2024-02-02T09:17:31.604Z,69068.47
2024-02-02T09:20:34.562Z,69087.22
2024-02-02T09:23:37.894Z,69091.84
2024-02-02T09:26:41.418Z,69112.66
2024-02-02T09:29:46.394Z,69135.06
2024-02-02T09:32:50.100Z,69159.13
2024-02-02T09:35:56.113Z,69126.06
2024-02-02T09:39:19.118Z,69169.81
2024-02-02T09:42:56.311Z,69116.72
2024-02-02T09:45:59.328Z,69128.41
2024-02-02T09:49:37.594Z,69118.22
2024-02-02T09:53:02.459Z,69135.59
2024-02-02T09:56:33.933Z,69147.16
2024-02-02T10:00:02.768Z,69139.06
2024-02-02T10:03:21.942Z,69148.91
2024-02-02T10:06:46.437Z,69158.97
2024-02-02T10:10:11.838Z,69155.25
2024-02-02T10:13:33.663Z,69165.31
2024-02-02T10:16:55.711Z,69174.13
2024-02-02T10:20:19.018Z,69237.34
2024-02-02T10:23:42.659Z,69212.91
2024-02-02T10:27:25.975Z,69236.44
2024-02-02T10:30:39.234Z,69218.59
2024-02-02T10:33:48.193Z,69196.94
2024-02-02T10:37:00.109Z,69227.06
2024-02-02T10:40:07.899Z,69221.25
2024-02-02T10:43:34.591Z,69235.41
2024-02-02T10:46:51.855Z,69226.16
2024-02-02T10:50:19.105Z,69269.44
2024-02-02T10:53:48.773Z,69228.22
2024-02-02T10:57:01.189Z,69205.66
2024-02-02T11:00:25.669Z,69193.22
2024-02-02T11:03:35.966Z,69188.84
2024-02-02T11:06:56.671Z,69171.16
2024-02-02T11:10:12.861Z,69184.22
2024-02-02T11:13:31.118Z,69235.28
2024-02-02T11:16:52.887Z,69206.22
2024-02-02T11:20:34.222Z,69227.63
2024-02-02T11:23:42.374Z,69286.25
2024-02-02T11:26:55.918Z,69240.63
2024-02-02T11:30:08.646Z,69276.88
2024-02-02T11:33:27.053Z,69317.41
2024-02-02T11:37:08.374Z,69341.78
2024-02-02T11:40:11.985Z,69350.47
2024-02-02T11:43:18.264Z,69351.63
2024-02-02T11:46:26.599Z,69423.13
2024-02-02T11:49:37.034Z,69446.13
2024-02-02T11:52:46.179Z,69461.25
2024-02-02T11:55:54.906Z,69521.59
2024-02-02T11:59:20.015Z,69574.66
2024-02-02T12:03:16.451Z,69570.94
2024-02-02T12:06:21.101Z,69645.28
2024-02-02T12:09:33.117Z,69653.41
2024-02-02T12:12:46.696Z,69698.53
2024-02-02T12:15:53.975Z,69747.59
2024-02-02T12:18:57.278Z,69759.81
2024-02-02T12:22:00.237Z,69905.97
2024-02-02T12:25:10.904Z,69920.41
2024-02-02T12:28:13.743Z,70229.56
2024-02-02T12:31:16.705Z,70255.56
2024-02-02T12:34:19.737Z,70382.66
2024-02-02T12:37:22.820Z,70424.09
2024-02-02T12:40:26.379Z,70515.31
2024-02-02T12:43:30.158Z,70426.84
2024-02-02T12:46:46.095Z,70470.88
2024-02-02T12:49:49.296Z,70545.31
2024-02-02T12:52:54.987Z,70612.78
2024-02-02T12:55:57.986Z,70654.91
2024-02-02T12:59:01.111Z,70665.44
2024-02-02T13:02:06.272Z,70569.28
2024-02-02T13:05:12.389Z,70549.97
2024-02-02T13:08:17.959Z,70440.28
2024-02-02T13:11:21.735Z,70390.22
2024-02-02T13:14:30.067Z,70176.50
2024-02-02T13:17:34.253Z,69919.00
2024-02-02T13:20:38.032Z,69791.78
2024-02-02T13:23:40.982Z,69663.97
2024-02-02T13:26:44.651Z,69532.97
2024-02-02T13:29:57.990Z,69458.94
2024-02-02T13:33:07.810Z,69417.50
2024-02-02T13:36:12.124Z,69411.34
2024-02-02T13:39:22.845Z,69427.00
2024-02-02T13:42:27.602Z,69437.22
2024-02-02T13:45:31.715Z,69444.75
2024-02-02T13:48:45.095Z,69440.94
2024-02-02T13:51:48.808Z,69453.72
2024-02-02T13:54:54.813Z,69464.16
2024-02-02T13:57:59.307Z,69459.50
2024-02-02T14:01:12.707Z,69431.66
2024-02-02T14:04:26.328Z,69391.38
2024-02-02T14:07:29.375Z,69386.41
2024-02-02T14:10:46.773Z,69343.84
2024-02-02T14:13:50.210Z,69321.13
2024-02-02T14:17:04.431Z,69318.03
2024-02-02T14:20:10.749Z,69372.66
2024-02-02T14:23:15.669Z,69318.03
2024-02-02T14:26:18.819Z,69324.97
2024-02-02T14:29:23.776Z,69324.41
2024-02-02T14:32:26.433Z,69309.31
2024-02-02T14:35:29.450Z,69317.41
2024-02-02T14:38:32.383Z,69315.94
2024-02-02T14:41:36.872Z,69335.41
2024-02-02T14:44:40.714Z,69334.81
2024-02-02T14:47:44.756Z,69336.56
2024-02-02T14:50:49.276Z,69320.31
2024-02-02T14:53:53.506Z,69299.47
2024-02-02T14:57:01.409Z,69285.31
2024-02-02T15:00:11.595Z,69331.47
2024-02-02T15:03:14.599Z,69279.19
2024-02-02T15:06:18.993Z,69331.22
2024-02-02T15:09:23.765Z,69271.41
2024-02-02T15:12:27.798Z,69259.25
2024-02-02T15:15:32.430Z,69245.34
2024-02-02T15:18:36.931Z,69246.19
2024-02-02T15:21:39.852Z,69243.03
2024-02-02T15:24:43.736Z,69217.22
2024-02-02T15:27:46.945Z,69216.41
2024-02-02T15:30:50.368Z,69206.22
2024-02-02T15:33:55.840Z,69194.63
2024-02-02T15:36:59.019Z,69190.59
2024-02-02T15:40:02.085Z,69192.31
2024-02-02T15:43:06.036Z,69181.66
2024-02-02T15:46:14.035Z,69161.28
2024-02-02T15:49:17.917Z,69161.03
2024-02-02T15:52:20.630Z,69139.63
2024-02-02T15:55:27.231Z,69124.56
2024-02-02T15:58:31.311Z,69140.22
2024-02-02T16:01:36.136Z,69138.47
2024-02-02T16:04:41.718Z,69135.59
2024-02-02T16:07:46.695Z,69132.69
2024-02-02T16:10:51.044Z,69126.31
2024-02-02T16:13:55.061Z,69119.13
2024-02-02T16:16:59.278Z,69174.44
2024-02-02T16:20:02.408Z,69116.50
2024-02-02T16:23:05.731Z,69117.38
2024-02-02T16:26:11.043Z,69114.75
2024-02-02T16:29:17.168Z,69115.00
2024-02-02T16:32:21.376Z,69120.78
2024-02-02T16:35:24.981Z,69127.47
2024-02-02T16:38:29.236Z,69130.03
2024-02-02T16:41:33.834Z,69144.59
2024-02-02T16:44:37.833Z,69142.63
2024-02-02T16:47:41.693Z,69139.63
2024-02-02T16:50:45.210Z,69136.41
